Airfield :
LOGIN :

Register | Disclaimer

   EN    FR    IT 

 










Legend :    VFR   Marginal VFR   IFR   Intensive IFR   Very Intensive IFR
Visi :
Ceiling :
>= 8 km
>= 3000ft
5 to 8 km
1000 to 3000 ft
1500m to 5 km
500 to 1000 ft
800 to 1500m
200 to 500 ft
< 800m
< 200 ft
Symbols :   Thunderstorms  Fog  Heavy snow  Heavy precipitations  Wind > 20 kt
SIGMETs :     Misc.  Thunderstorms  Icing  Turbulence  Mountain Waves  Volcanic Ashes







- Airport Elevation : 157 ft
- IATA code : LIL
- Download approach charts


LFQQ - Lille Lesquin

CURRENT METAR :
  • 201800Z AUTO 05005KT 7000 BKN038 OVC044 02/01 Q1005 TEMPO 4000 -RASN BKN010 OVC025

EXPIRED METARs :
  • 201730Z AUTO 05006KT 7000 -RADZ BKN039 OVC049 02/01 Q1005 TEMPO 4000 -RASN BKN010 OVC025
  • 201700Z AUTO 06006KT 7000 SCT013 BKN028 BKN033 02/01 Q1005 TEMPO 4000 -RASN
  • 201630Z AUTO 06006KT 5000 -SNRA BR FEW010 BKN016 OVC024 02/01 Q1005 NOSIG
  • 201600Z AUTO 07011KT 5000 -SNRA BR BKN015 BKN020 BKN025 02/00 Q1005 NOSIG
  • 201530Z AUTO 06010KT 9999 FEW030/// BKN056/// BKN068/// ///TCU 04/M01 Q1004 TEMPO 4000 -RASN BECMG OVC035

TAF TAF LFQQ
Valid from the 20 at 18:00 until the 22 at 00:00 UTC


201700Z 2018/2124 06010KT 9999 OVC035
TEMPO 2018/2101 4000 -RASN BKN010 OVC025
BECMG 2022/2101 16004KT
PROB30
TEMPO 2101/2106 BKN005
BECMG 2106/2108 3000 BR OVC002
BECMG 2110/2113 BKN013
BECMG 2113/2115 NSC
ATIS : +33 3 20 16 19 54
No reported NOTAMs for that airfield.



MET'MAP, your aeronautical weather chart ! - Copyright ORBIFLY December 2007 - Disclaimer

ORBIFLY MET'MAP TEAM :

Programming & Development : Alexandra Zaïnal
Concept & Development : Baudouin d'Aumeries
Co-Development & Prog : Marc-Olivier Méhu
Technical & hardware support : Manuel Goepfert

Contact : metmap@orbifly.com




SOURCES & CREDITS :

   NOAA